Time;durP1;ratioP1;P1;durP2;ratioP2;P2;SDS_P1;SDS_P2;PMS_P1;PMS_P2;Temp;Humidity;BMP_temperature;BMP_pressure;BME280_temperature;BME280_humidity;BME280_pressure;Samples;Min_cycle;Max_cycle;Signal;HPM_P1;HPM_P2
2022/11/28 00:01:17;;;;;;;1999.90;999.90;;;10.90;99.90;;;;;;5114523;28;20050;-75
2022/11/28 00:03:42;;;;;;;1999.90;999.90;;;11.70;99.90;;;;;;5114357;28;20043;-72
2022/11/28 00:06:08;;;;;;;1999.90;999.90;;;10.80;99.90;;;;;;5095350;28;20043;-71
2022/11/28 00:08:34;;;;;;;1999.90;999.90;;;11.10;99.90;;;;;;5095195;28;20058;-71
2022/11/28 00:11:04;;;;;;;1999.90;999.90;;;10.60;99.90;;;;;;5114221;28;20451;-71
2022/11/28 00:13:31;;;;;;;1999.90;999.90;;;10.50;99.90;;;;;;5113999;28;20043;-73
2022/11/28 00:15:58;;;;;;;1999.90;999.90;;;10.40;99.90;;;;;;5114209;28;20066;-73
2022/11/28 00:18:24;;;;;;;1999.90;999.90;;;9.60;99.90;;;;;;5111970;28;20463;-77
2022/11/28 00:20:50;;;;;;;455.92;54.90;;;10.70;99.90;;;;;;5114104;28;20047;-71
2022/11/28 00:23:16;;;;;;;1719.80;409.77;;;10.90;99.90;;;;;;5095694;28;20070;-88
2022/11/28 00:25:41;;;;;;;1999.90;999.90;;;12.20;99.90;;;;;;5095257;28;20035;-72
2022/11/28 00:28:07;;;;;;;1292.70;542.20;;;11.00;99.90;;;;;;5114035;28;20047;-74
2022/11/28 00:30:36;;;;;;;1999.90;999.90;;;11.10;99.90;;;;;;5113773;28;20043;-71
2022/11/28 00:33:02;;;;;;;1825.38;596.30;;;;;;;;;;5113999;28;20391;-74
2022/11/28 00:35:28;;;;;;;1999.90;999.90;;;10.80;99.90;;;;;;5113244;28;20043;-71
2022/11/28 00:37:54;;;;;;;1999.90;999.90;;;11.00;99.90;;;;;;5113298;28;20039;-71
2022/11/28 00:40:20;;;;;;;1999.90;999.90;;;10.40;99.90;;;;;;5095587;28;20055;-71
2022/11/28 00:42:46;;;;;;;1999.90;999.90;;;10.90;99.90;;;;;;5112336;28;20044;-73
2022/11/28 00:45:11;;;;;;;1999.90;999.90;;;10.40;99.90;;;;;;5113834;28;20331;-71
2022/11/28 00:47:37;;;;;;;1999.90;999.90;;;10.60;99.90;;;;;;5113177;28;20047;-72
2022/11/28 00:50:03;;;;;;;1468.18;366.02;;;11.10;99.90;;;;;;5113005;28;20047;-72
2022/11/28 00:52:32;;;;;;;1999.90;999.90;;;8.80;99.90;;;;;;5112590;28;20498;-72
2022/11/28 00:54:57;;;;;;;1999.90;999.90;;;10.70;99.90;;;;;;5095625;28;20123;-71
2022/11/28 00:57:23;;;;;;;1999.90;999.90;;;10.80;99.90;;;;;;5094605;28;20146;-72
2022/11/28 00:59:49;;;;;;;1628.93;767.13;;;10.50;99.90;;;;;;5113539;28;20403;-72
2022/11/28 01:02:15;;;;;;;1999.90;999.90;;;11.00;99.90;;;;;;5113385;28;20420;-72
2022/11/28 01:04:41;;;;;;;1999.90;999.90;;;10.50;99.90;;;;;;5112747;28;20040;-72
2022/11/28 01:07:07;;;;;;;1999.90;999.90;;;10.50;99.90;;;;;;5113384;28;20097;-72
2022/11/28 01:09:33;;;;;;;1999.90;999.90;;;10.60;99.90;;;;;;5111571;28;20055;-72
2022/11/28 01:11:58;;;;;;;1587.68;761.50;;;10.50;99.90;;;;;;5113177;28;20134;-72
2022/11/28 01:14:25;;;;;;;1999.90;999.90;;;10.30;99.90;;;;;;5112866;28;20040;-74
2022/11/28 01:16:51;;;;;;;1999.90;999.90;;;11.40;99.90;;;;;;5112975;28;20476;-72
2022/11/28 01:19:17;;;;;;;1999.90;999.90;;;10.60;99.90;;;;;;5112646;28;20051;-71
2022/11/28 01:21:43;;;;;;;1999.90;999.90;;;11.40;99.90;;;;;;5112942;28;20049;-76
2022/11/28 01:24:10;;;;;;;1999.90;999.90;;;11.10;99.90;;;;;;5113027;28;20079;-72
2022/11/28 01:26:37;;;;;;;1999.90;999.90;;;10.60;99.90;;;;;;5112672;28;20058;-71
2022/11/28 01:29:03;;;;;;;1999.90;999.90;;;10.60;99.90;;;;;;5112685;28;20110;-71
2022/11/28 01:31:29;;;;;;;1586.95;763.20;;;11.30;99.90;;;;;;5112744;28;20452;-70
2022/11/28 01:33:55;;;;;;;1999.90;999.90;;;10.90;99.90;;;;;;5112723;28;20043;-71
2022/11/28 01:36:21;;;;;;;1999.90;999.90;;;11.10;99.90;;;;;;5094972;28;20047;-71
2022/11/28 01:38:48;;;;;;;1999.90;999.90;;;11.50;99.90;;;;;;5112068;28;20085;-71
2022/11/28 01:41:17;;;;;;;1999.90;999.90;;;10.60;99.90;;;;;;5112988;28;20040;-71
2022/11/28 01:44:05;;;;;;;1999.90;999.90;;;10.60;99.90;;;;;;5112386;28;20052;-71
2022/11/28 01:46:34;;;;;;;1999.90;999.90;;;10.00;99.90;;;;;;5112516;28;20077;-71
2022/11/28 01:49:19;;;;;;;1999.90;999.90;;;11.00;99.90;;;;;;5112464;28;20046;-71
2022/11/28 01:51:49;;;;;;;1593.93;384.70;;;11.00;99.90;;;;;;5112415;28;20047;-75
2022/11/28 01:54:17;;;;;;;1999.90;999.90;;;10.90;99.90;;;;;;5111907;28;20040;-71
2022/11/28 01:56:57;;;;;;;1999.90;999.90;;;11.00;99.90;;;;;;5112012;28;20108;-71
2022/11/28 01:59:27;;;;;;;1999.90;999.90;;;11.00;99.90;;;;;;5112055;28;20036;-71
2022/11/28 02:01:53;;;;;;;1999.90;999.90;;;11.50;99.90;;;;;;5094232;28;20040;-70
2022/11/28 02:04:19;;;;;;;1999.90;999.90;;;10.70;99.90;;;;;;5111726;28;20048;-71
2022/11/28 02:06:45;;;;;;;1999.90;999.90;;;10.90;99.90;;;;;;5111951;28;20048;-73
2022/11/28 02:09:13;;;;;;;1999.90;999.90;;;11.10;99.90;;;;;;5112123;28;20043;-71
2022/11/28 02:11:53;;;;;;;1792.80;605.55;;;10.70;99.90;;;;;;5111767;28;20133;-70
2022/11/28 02:14:40;;;;;;;1999.90;999.90;;;11.10;99.90;;;;;;5112632;28;20138;-71
2022/11/28 02:17:27;;;;;;;1999.90;999.90;;;11.30;99.90;;;;;;5111826;28;20063;-70
2022/11/28 02:20:20;;;;;;;1999.90;999.90;;;10.80;99.90;;;;;;5112320;28;20051;-71
2022/11/28 02:23:05;;;;;;;1999.90;999.90;;;11.60;99.90;;;;;;5110692;28;20056;-70
2022/11/28 02:26:09;;;;;;;1999.90;999.90;;;10.20;99.90;;;;;;5112253;28;20411;-71
2022/11/28 02:28:43;;;;;;;1698.63;593.13;;;11.60;99.90;;;;;;5110944;28;20523;-71
2022/11/28 02:31:42;;;;;;;1999.90;999.90;;;12.50;99.90;;;;;;5111854;28;20090;-70
2022/11/28 02:34:34;;;;;;;1999.90;999.90;;;11.40;99.90;;;;;;5111710;28;20048;-72
2022/11/28 02:37:24;;;;;;;1999.90;999.90;;;11.60;99.90;;;;;;5111591;28;20392;-71
2022/11/28 02:40:05;;;;;;;1999.90;999.90;;;12.30;99.90;;;;;;5111260;28;20058;-71
2022/11/28 02:42:53;;;;;;;1784.40;785.92;;;11.50;99.90;;;;;;5111531;28;20082;-72
2022/11/28 02:45:28;;;;;;;1999.90;999.90;;;11.00;99.90;;;;;;5111277;28;20047;-70
2022/11/28 02:48:02;;;;;;;1999.90;999.90;;;11.70;99.90;;;;;;5112199;28;20050;-71
2022/11/28 02:50:38;;;;;;;1999.90;999.90;;;11.80;99.90;;;;;;5115259;28;20051;-70
2022/11/28 02:53:19;;;;;;;1999.90;999.90;;;11.10;99.90;;;;;;5114800;28;20047;-70
2022/11/28 02:55:45;;;;;;;1572.28;762.80;;;11.30;99.90;;;;;;5115360;28;20048;-71
2022/11/28 02:58:11;;;;;;;1999.90;999.90;;;11.80;99.90;;;;;;5115184;28;20062;-70
2022/11/28 03:00:39;;;;;;;1999.90;999.90;;;11.90;99.90;;;;;;5115086;28;20039;-70
2022/11/28 03:03:26;;;;;;;1999.90;999.90;;;11.10;99.90;;;;;;5115042;28;20141;-71
2022/11/28 03:06:08;;;;;;;1633.90;595.58;;;10.90;99.90;;;;;;5096648;28;20392;-71
2022/11/28 03:08:57;;;;;;;1999.90;999.90;;;11.90;99.90;;;;;;5114859;28;20043;-77
2022/11/28 03:11:40;;;;;;;;;;;11.00;99.90;;;;;;5097522;28;20392;-70
2022/11/28 03:14:11;;;;;;;1741.45;597.90;;;11.90;99.90;;;;;;5115006;28;19923;-72
2022/11/28 03:17:13;;;;;;;1526.03;382.80;;;13.30;99.90;;;;;;5115200;28;20039;-71
2022/11/28 03:19:43;;;;;;;1736.72;595.42;;;11.00;99.90;;;;;;5103760;28;20052;-74
2022/11/28 03:22:21;;;;;;;1999.90;999.90;;;11.40;99.90;;;;;;5114932;28;20126;-71
2022/11/28 03:24:59;;;;;;;1999.90;999.90;;;11.90;99.90;;;;;;5113963;28;20079;-71
2022/11/28 03:27:34;;;;;;;1999.90;999.90;;;11.20;99.90;;;;;;5096763;28;20388;-70
2022/11/28 03:30:15;;;;;;;1999.90;999.90;;;11.90;99.90;;;;;;5114013;28;20055;-72
2022/11/28 03:32:45;;;;;;;1017.20;137.82;;;11.90;99.90;;;;;;5114266;28;20042;-70
2022/11/28 03:35:16;;;;;;;1999.90;999.90;;;12.50;99.90;;;;;;5113997;28;20048;-72
2022/11/28 03:37:51;;;;;;;1577.47;581.08;;;12.10;99.90;;;;;;5113944;28;20368;-73
2022/11/28 03:40:23;;;;;;;1624.07;581.47;;;11.20;99.90;;;;;;5114679;28;20087;-74
2022/11/28 03:42:57;;;;;;;1156.78;149.85;;;12.10;99.90;;;;;;5114264;28;20048;-70
2022/11/28 03:45:27;;;;;;;1999.90;999.90;;;11.50;99.90;;;;;;5114703;28;20393;-70
2022/11/28 03:48:07;;;;;;;1999.90;999.90;;;12.70;99.90;;;;;;5114555;28;20043;-71
2022/11/28 03:51:04;;;;;;;1999.90;999.90;;;12.10;99.90;;;;;;5114801;28;20039;-70
2022/11/28 03:53:37;;;;;;;1999.90;999.90;;;12.10;99.90;;;;;;5095799;28;20064;-72
2022/11/28 03:56:16;;;;;;;1999.90;999.90;;;11.50;99.90;;;;;;5114238;28;20126;-70
2022/11/28 03:58:51;;;;;;;1158.75;349.77;;;12.70;99.90;;;;;;5113564;28;20039;-73
2022/11/28 04:01:28;;;;;;;1700.80;603.38;;;11.80;99.90;;;;;;5113915;28;20066;-73
2022/11/28 04:04:32;;;;;;;1999.90;999.90;;;11.70;99.90;;;;;;5095778;28;20395;-70
2022/11/28 04:07:04;;;;;;;1999.90;999.90;;;12.30;99.90;;;;;;5095652;28;20392;-71
2022/11/28 04:09:50;;;;;;;1739.88;789.40;;;11.70;99.90;;;;;;5096397;28;20051;-70
2022/11/28 04:12:28;;;;;;;1600.63;769.50;;;12.30;99.90;;;;;;5113206;28;20388;-70
2022/11/28 04:15:02;;;;;;;1999.90;301.73;;;12.50;99.90;;;;;;5114100;28;20043;-70
2022/11/28 04:17:46;;;;;;;1706.63;594.00;;;12.10;99.90;;;;;;5113464;28;20058;-70
2022/11/28 04:20:22;;;;;;;1303.40;548.92;;;11.70;99.90;;;;;;5113141;28;20499;-70
2022/11/28 04:22:54;;;;;;;1999.90;999.90;;;11.80;99.90;;;;;;5113689;28;20086;-70
2022/11/28 04:25:22;;;;;;;1505.30;410.08;;;12.10;99.90;;;;;;5096212;28;20134;-70
2022/11/28 04:28:00;;;;;;;1292.80;210.18;;;11.80;99.90;;;;;;5113359;28;20039;-70
2022/11/28 04:30:26;;;;;;;1175.10;160.95;;;11.80;99.90;;;;;;5114468;28;20048;-71
2022/11/28 04:32:59;;;;;;;1074.57;171.32;;;11.90;99.90;;;;;;5113576;28;20044;-70
2022/11/28 04:35:32;;;;;;;1999.90;999.90;;;11.90;99.90;;;;;;5113762;28;20039;-73
2022/11/28 04:38:00;;;;;;;1999.90;999.90;;;12.20;99.90;;;;;;5113140;28;20089;-71
2022/11/28 04:40:29;;;;;;;1999.90;999.90;;;12.00;99.90;;;;;;5095635;28;20407;-71
2022/11/28 04:42:58;;;;;;;1999.90;999.90;;;11.80;99.90;;;;;;5094226;28;20044;-71
2022/11/28 04:45:32;;;;;;;1999.90;999.90;;;12.30;99.90;;;;;;5113447;28;20051;-71
2022/11/28 04:47:59;;;;;;;1669.80;778.47;;;12.80;99.90;;;;;;5112683;28;20094;-71
2022/11/28 04:50:30;;;;;;;1999.90;999.90;;;12.60;99.90;;;;;;5095110;28;20079;-71
2022/11/28 04:53:09;;;;;;;1999.90;999.90;;;12.90;99.90;;;;;;5077871;28;20137;-71
2022/11/28 04:55:44;;;;;;;1999.90;999.90;;;12.30;99.90;;;;;;5095287;28;20054;-72
2022/11/28 04:58:37;;;;;;;1455.00;571.42;;;11.90;99.90;;;;;;5112980;28;20079;-71
2022/11/28 05:01:07;;;;;;;1999.90;999.90;;;12.20;99.90;;;;;;5094714;28;20119;-72
2022/11/28 05:03:34;;;;;;;1999.90;999.90;;;13.40;99.90;;;;;;5112469;28;20047;-72
2022/11/28 05:06:00;;;;;;;1999.90;999.90;;;12.90;99.90;;;;;;5094406;28;20047;-74
2022/11/28 05:08:26;;;;;;;1999.90;999.90;;;12.30;99.90;;;;;;5093962;28;20051;-75
2022/11/28 05:10:52;;;;;;;1250.53;386.35;;;13.00;99.90;;;;;;5112204;28;20051;-71
2022/11/28 05:13:17;;;;;;;1470.50;578.97;;;12.20;99.90;;;;;;5095243;28;20043;-70
2022/11/28 05:15:43;;;;;;;1999.90;999.90;;;12.10;99.90;;;;;;5113195;28;20106;-70
2022/11/28 05:18:09;;;;;;;1999.90;999.90;;;12.90;99.90;;;;;;5111000;28;20043;-74
2022/11/28 05:20:37;;;;;;;1999.90;999.90;;;12.20;99.90;;;;;;5111520;28;20087;-71
2022/11/28 05:23:03;;;;;;;1999.90;999.90;;;12.60;99.90;;;;;;5112394;28;20039;-76
2022/11/28 05:25:28;;;;;;;1999.90;999.90;;;12.10;99.90;;;;;;5077376;28;20047;-72
2022/11/28 05:27:54;;;;;;;1999.90;999.90;;;13.00;99.90;;;;;;5111538;28;20044;-72
2022/11/28 05:30:20;;;;;;;1482.10;580.97;;;12.10;99.90;;;;;;5093130;28;20185;-72
2022/11/28 05:32:46;;;;;;;1999.90;999.90;;;12.80;99.90;;;;;;5110971;28;20047;-75
2022/11/28 05:35:11;;;;;;;1999.90;999.90;;;12.30;99.90;;;;;;5093130;28;20054;-74
2022/11/28 05:37:37;;;;;;;1999.90;999.90;;;12.10;99.90;;;;;;5112618;28;20070;-74
2022/11/28 05:40:04;;;;;;;652.28;137.73;;;12.10;99.90;;;;;;5111803;28;20138;-73
2022/11/28 05:42:34;;;;;;;1999.90;999.90;;;12.30;99.90;;;;;;5112414;28;20669;-73
2022/11/28 05:45:00;;;;;;;1352.47;577.10;;;12.10;99.90;;;;;;5111116;28;20050;-74
2022/11/28 05:47:25;;;;;;;1999.90;999.90;;;12.40;99.90;;;;;;5112028;28;20043;-74
2022/11/28 05:49:51;;;;;;;997.40;347.58;;;12.10;99.90;;;;;;5093725;28;20097;-74
2022/11/28 05:52:17;;;;;;;1766.07;793.63;;;12.80;99.90;;;;;;5112628;28;20057;-75
2022/11/28 05:54:43;;;;;;;1999.90;999.90;;;12.20;99.90;;;;;;5112252;28;20048;-74
2022/11/28 05:57:08;;;;;;;1765.38;798.08;;;12.20;99.90;;;;;;5110726;28;20455;-74
2022/11/28 05:59:34;;;;;;;1520.38;589.55;;;12.80;99.90;;;;;;5111920;28;20040;-74
2022/11/28 06:02:00;;;;;;;1408.70;576.63;;;12.80;99.90;;;;;;5112271;28;20051;-74
2022/11/28 06:04:25;;;;;;;1999.90;999.90;;;13.20;99.90;;;;;;5094479;28;20051;-73
2022/11/28 06:06:51;;;;;;;1999.90;999.90;;;13.80;99.90;;;;;;5111292;28;20048;-74
2022/11/28 06:09:17;;;;;;;1999.90;999.90;;;12.40;99.90;;;;;;5112126;28;20071;-74
2022/11/28 06:11:43;;;;;;;1999.90;999.90;;;12.50;99.90;;;;;;5093848;28;20505;-74
2022/11/28 06:14:10;;;;;;;1999.90;999.90;;;12.40;99.90;;;;;;5111314;28;20051;-73
2022/11/28 06:16:36;;;;;;;1999.90;999.90;;;13.30;99.90;;;;;;5111549;28;20265;-80
2022/11/28 06:19:04;;;;;;;1999.90;999.90;;;12.20;99.90;;;;;;5111001;28;20047;-73
2022/11/28 06:21:30;;;;;;;1999.90;999.90;;;12.60;99.90;;;;;;5094289;28;20047;-74
2022/11/28 06:23:57;;;;;;;1999.90;999.90;;;12.20;99.90;;;;;;5113874;28;20063;-79
2022/11/28 06:26:24;;;;;;;1999.90;999.90;;;12.40;99.90;;;;;;5115463;28;20108;-73
2022/11/28 06:28:50;;;;;;;1999.90;999.90;;;13.30;99.90;;;;;;5115867;28;20043;-73
2022/11/28 06:31:19;;;;;;;1282.28;566.72;;;14.40;99.90;;;;;;5097792;28;20127;-74
2022/11/28 06:33:45;;;;;;;1999.90;999.90;;;13.30;99.90;;;;;;5115613;28;20048;-73
2022/11/28 06:36:12;;;;;;;1999.90;999.90;;;13.20;99.90;;;;;;5115045;28;20130;-72
2022/11/28 06:38:38;;;;;;;1999.90;999.90;;;12.40;99.90;;;;;;5080582;28;20050;-73
2022/11/28 06:41:07;;;;;;;1999.90;999.90;;;12.70;99.90;;;;;;5115990;28;20044;-73
2022/11/28 06:43:33;;;;;;;1690.68;790.95;;;12.60;99.90;;;;;;5115612;28;20130;-73
2022/11/28 06:45:59;;;;;;;1999.90;999.90;;;12.40;99.90;;;;;;5115571;28;20040;-73
2022/11/28 06:48:26;;;;;;;1999.90;999.90;;;13.30;99.90;;;;;;5080922;28;20047;-75
2022/11/28 06:50:52;;;;;;;1999.90;999.90;;;12.80;99.90;;;;;;5096989;28;20079;-73
2022/11/28 06:53:18;;;;;;;1999.90;999.90;;;13.30;99.90;;;;;;5114496;28;20098;-72
2022/11/28 06:55:44;;;;;;;1999.90;999.90;;;13.20;99.90;;;;;;5115693;28;20490;-73
2022/11/28 06:58:10;;;;;;;1999.90;999.90;;;12.40;99.90;;;;;;5115475;28;20082;-73
2022/11/28 07:00:36;;;;;;;1999.90;999.90;;;12.70;99.90;;;;;;5115480;28;20086;-73
2022/11/28 07:03:02;;;;;;;1999.90;999.90;;;13.40;99.90;;;;;;5115508;28;20047;-73
2022/11/28 07:05:29;;;;;;;1999.90;999.90;;;13.00;99.90;;;;;;5115347;28;20055;-73
2022/11/28 07:07:56;;;;;;;1999.90;999.90;;;13.10;99.90;;;;;;5115391;28;20120;-73
2022/11/28 07:10:25;;;;;;;1999.90;999.90;;;13.40;99.90;;;;;;5115029;28;20054;-73
2022/11/28 07:12:55;;;;;;;1652.13;783.88;;;12.50;99.90;;;;;;5115335;28;20472;-73
2022/11/28 07:15:23;;;;;;;1999.90;999.90;;;12.30;99.90;;;;;;5115232;28;20040;-73
2022/11/28 07:17:49;;;;;;;1999.90;999.90;;;13.50;99.90;;;;;;5115276;28;20058;-75
2022/11/28 07:20:14;;;;;;;1999.90;999.90;;;12.90;99.90;;;;;;5114994;28;20043;-73
2022/11/28 07:22:41;;;;;;;1999.90;999.90;;;13.30;99.90;;;;;;5114997;28;20036;-73
2022/11/28 07:25:07;;;;;;;1999.90;999.90;;;12.40;99.90;;;;;;5115104;28;20051;-73
2022/11/28 07:27:33;;;;;;;1999.90;999.90;;;12.80;99.90;;;;;;5114981;28;20101;-73
2022/11/28 07:29:58;;;;;;;1999.90;999.90;;;12.20;99.90;;;;;;5115608;28;20054;-73
2022/11/28 07:32:24;;;;;;;904.53;167.90;;;13.40;99.90;;;;;;5114013;28;20471;-74
2022/11/28 07:34:50;;;;;;;1999.90;999.90;;;13.40;99.90;;;;;;5114824;28;20054;-73
2022/11/28 07:37:15;;;;;;;1999.90;999.90;;;13.40;99.90;;;;;;5112394;28;20358;-73
2022/11/28 07:39:43;;;;;;;1999.90;999.90;;;12.80;99.90;;;;;;5096528;28;20159;-74
2022/11/28 07:42:12;;;;;;;1999.90;999.90;;;13.10;99.90;;;;;;5114029;28;20047;-74
2022/11/28 07:44:38;;;;;;;1999.90;999.90;;;12.40;99.90;;;;;;5114738;28;20048;-73
2022/11/28 07:47:03;;;;;;;1999.90;999.90;;;12.60;99.90;;;;;;5114001;28;20054;-75
2022/11/28 07:49:29;;;;;;;1999.90;999.90;;;12.40;99.90;;;;;;5114470;28;20035;-73
2022/11/28 07:51:56;;;;;;;642.88;131.73;;;12.50;99.90;;;;;;5114629;28;20040;-75
2022/11/28 07:54:21;;;;;;;1999.90;999.90;;;12.90;99.90;;;;;;5095752;28;20135;-77
2022/11/28 07:56:47;;;;;;;1999.90;999.90;;;13.30;99.90;;;;;;5114744;28;20074;-74
2022/11/28 07:59:13;;;;;;;1999.90;999.90;;;13.40;99.90;;;;;;5114165;28;20036;-80
2022/11/28 08:01:38;;;;;;;1999.90;999.90;;;14.90;99.90;;;;;;5096542;28;20043;-74
2022/11/28 08:04:06;;;;;;;1999.90;999.90;;;13.30;99.90;;;;;;5113228;28;20036;-84
2022/11/28 08:06:36;;;;;;;1999.90;999.90;;;13.20;99.90;;;;;;5114296;28;20488;-74
2022/11/28 08:09:02;;;;;;;1999.90;999.90;;;12.70;99.90;;;;;;5114243;28;20134;-74
2022/11/28 08:11:29;;;;;;;1999.90;999.90;;;13.00;99.90;;;;;;5113530;28;20118;-76
2022/11/28 08:13:56;;;;;;;1999.90;999.90;;;12.70;99.90;;;;;;5113837;28;20496;-74
2022/11/28 08:16:23;;;;;;;1999.90;999.90;;;13.70;99.90;;;;;;5113213;28;20040;-74
2022/11/28 08:18:50;;;;;;;1999.90;999.90;;;12.50;99.90;;;;;;5113770;28;20059;-74
2022/11/28 08:21:19;;;;;;;1999.90;999.90;;;12.60;99.90;;;;;;5112815;28;20073;-73
2022/11/28 08:23:44;;;;;;;1999.90;999.90;;;13.40;99.90;;;;;;5113454;28;20051;-74
2022/11/28 08:26:15;;;;;;;1999.90;999.90;;;12.80;99.90;;;;;;5112208;28;20047;-75
2022/11/28 08:28:42;;;;;;;1999.90;999.90;;;13.60;99.90;;;;;;5113160;28;20479;-74
2022/11/28 08:31:09;;;;;;;1999.90;999.90;;;13.20;99.90;;;;;;5095531;28;20051;-82
2022/11/28 08:33:35;;;;;;;1999.90;999.90;;;12.90;99.90;;;;;;5113823;28;20051;-74
2022/11/28 08:36:04;;;;;;;1999.90;999.90;;;13.30;99.90;;;;;;5113697;28;20043;-75
2022/11/28 08:38:30;;;;;;;1999.90;999.90;;;13.60;99.90;;;;;;5095104;28;20051;-73
2022/11/28 08:41:04;;;;;;;1999.90;999.90;;;12.50;99.90;;;;;;5113271;28;20058;-74
2022/11/28 08:43:30;;;;;;;1999.90;999.90;;;13.60;99.90;;;;;;5113441;28;20047;-74
2022/11/28 08:45:56;;;;;;;1999.90;999.90;;;12.50;99.90;;;;;;5112487;28;20134;-74
2022/11/28 08:48:22;;;;;;;1999.90;999.90;;;13.80;99.90;;;;;;5113242;28;20127;-77
2022/11/28 08:50:48;;;;;;;1321.10;560.67;;;13.00;99.90;;;;;;5113337;28;20475;-74
2022/11/28 08:53:14;;;;;;;1999.90;999.90;;;13.60;99.90;;;;;;5094974;28;20441;-73
2022/11/28 08:55:43;;;;;;;1999.90;999.90;;;12.90;99.90;;;;;;5113323;28;20043;-77
2022/11/28 08:58:13;;;;;;;1580.93;771.00;;;12.60;99.90;;;;;;5113331;28;20043;-73
2022/11/28 09:00:39;;;;;;;1999.90;999.90;;;13.40;99.90;;;;;;5112683;28;20051;-74
2022/11/28 09:03:05;;;;;;;1999.90;999.90;;;13.60;99.90;;;;;;5112290;28;20039;-74
2022/11/28 09:05:31;;;;;;;1999.90;999.90;;;13.70;99.90;;;;;;5111899;28;20114;-74
2022/11/28 09:07:57;;;;;;;1999.90;999.90;;;13.40;99.90;;;;;;5112916;28;20066;-74
2022/11/28 09:10:23;;;;;;;1999.90;999.90;;;13.50;99.90;;;;;;5094946;28;20497;-76
2022/11/28 09:12:50;;;;;;;1999.90;999.90;;;13.10;99.90;;;;;;5112265;28;20047;-75
2022/11/28 09:15:17;;;;;;;1999.90;999.90;;;13.70;99.90;;;;;;5112880;28;20055;-74
2022/11/28 09:17:44;;;;;;;1999.90;999.90;;;12.70;99.90;;;;;;5093793;28;20044;-75
2022/11/28 09:20:10;;;;;;;1999.90;999.90;;;12.90;99.90;;;;;;5094741;28;20502;-76
2022/11/28 09:22:36;;;;;;;1999.90;999.90;;;13.30;99.90;;;;;;5112428;28;20070;-75
2022/11/28 09:25:02;;;;;;;1999.90;999.90;;;13.10;99.90;;;;;;5113106;28;20472;-76
2022/11/28 09:27:27;;;;;;;1999.90;999.90;;;13.80;99.90;;;;;;5111423;28;20051;-75
2022/11/28 09:29:53;;;;;;;1999.90;999.90;;;13.70;99.90;;;;;;5112386;28;20043;-75
2022/11/28 09:32:18;;;;;;;1999.90;999.90;;;12.80;99.90;;;;;;5094479;28;20047;-79
2022/11/28 09:34:44;;;;;;;1999.90;999.90;;;13.80;99.90;;;;;;5112771;28;20040;-76
2022/11/28 09:37:10;;;;;;;1999.90;999.90;;;12.80;99.90;;;;;;5112502;28;20044;-76
2022/11/28 09:39:35;;;;;;;1999.90;999.90;;;13.80;99.90;;;;;;5111843;28;20040;-86
2022/11/28 09:42:04;;;;;;;1999.90;999.90;;;12.80;99.90;;;;;;5112399;28;20040;-76
2022/11/28 09:44:44;;;;;;;1999.90;999.90;;;13.40;99.90;;;;;;5111970;28;20051;-75
2022/11/28 09:47:19;;;;;;;1999.90;999.90;;;12.90;99.90;;;;;;5112432;28;20055;-76
2022/11/28 09:50:13;;;;;;;1999.90;999.90;;;13.90;99.90;;;;;;5112327;28;20050;-76
2022/11/28 09:52:53;;;;;;;1999.90;999.90;;;13.00;99.90;;;;;;5112018;28;20130;-76
2022/11/28 09:55:25;;;;;;;1999.90;999.90;;;13.00;99.90;;;;;;5112583;28;20048;-76
2022/11/28 09:57:52;;;;;;;1999.90;999.90;;;13.90;99.90;;;;;;5096624;28;20044;-76
2022/11/28 10:00:30;;;;;;;1999.90;999.90;;;14.10;99.90;;;;;;5116276;28;20039;-87
2022/11/28 10:03:19;;;;;;;1999.90;999.90;;;13.80;99.90;;;;;;5116758;28;20039;-76
2022/11/28 10:06:08;;;;;;;1999.90;999.90;;;13.00;99.90;;;;;;5116338;28;20054;-76
2022/11/28 10:08:52;;;;;;;1999.90;999.90;;;13.50;99.90;;;;;;5115933;28;20040;-76
2022/11/28 10:11:46;;;;;;;1326.85;569.25;;;13.00;99.90;;;;;;5116259;28;20048;-76
2022/11/28 10:14:35;;;;;;;1548.43;598.17;;;12.90;99.90;;;;;;5092801;28;20144;-76
2022/11/28 10:17:14;;;;;;;1999.90;999.90;;;13.80;99.90;;;;;;5116293;28;20063;-76
2022/11/28 10:19:41;;;;;;;;;;;14.00;99.90;;;;;;5116618;28;20047;-77
2022/11/28 10:22:14;;;;;;;1999.90;999.90;;;13.00;99.90;;;;;;5115712;28;19931;-76
2022/11/28 10:24:46;;;;;;;1999.90;999.90;;;13.80;99.90;;;;;;5115310;28;20380;-76
2022/11/28 10:27:13;;;;;;;1999.90;999.90;;;14.00;99.90;;;;;;5114468;28;20047;-76
2022/11/28 10:29:55;;;;;;;1999.90;999.90;;;14.20;99.90;;;;;;5116183;28;20079;-80
2022/11/28 10:32:29;;;;;;;1999.90;999.90;;;13.50;99.90;;;;;;5115358;28;20268;-89
2022/11/28 10:35:05;;;;;;;1999.90;999.90;;;14.00;99.90;;;;;;5114899;28;20468;-76
2022/11/28 10:37:35;;;;;;;1999.90;999.90;;;14.20;99.90;;;;;;5115117;28;20035;-76
2022/11/28 10:40:35;;;;;;;1999.90;999.90;;;13.20;99.90;;;;;;5114572;28;20491;-76
2022/11/28 10:43:21;;;;;;;1999.90;999.90;;;13.20;99.90;;;;;;5115770;28;20152;-76
2022/11/28 10:46:02;;;;;;;1705.97;787.78;;;13.30;99.90;;;;;;5115542;28;20051;-77
2022/11/28 10:48:40;;;;;;;1999.90;999.90;;;13.30;99.90;;;;;;5097090;28;20134;-77
2022/11/28 10:51:25;;;;;;;1999.90;999.90;;;14.10;99.90;;;;;;5116078;28;20083;-84
2022/11/28 10:54:15;;;;;;;1999.90;999.90;;;14.00;99.90;;;;;;5113865;28;20472;-76
2022/11/28 10:56:56;;;;;;;1999.90;999.90;;;13.20;99.90;;;;;;5115432;28;20108;-81
2022/11/28 10:59:40;;;;;;;1999.90;999.90;;;13.80;99.90;;;;;;5115597;28;20055;-76
2022/11/28 11:02:49;;;;;;;1999.90;999.90;;;13.30;99.90;;;;;;5115069;28;20146;-76
2022/11/28 11:05:26;;;;;;;1999.90;999.90;;;14.10;99.90;;;;;;5114927;28;20409;-75
2022/11/28 11:08:07;;;;;;;1999.90;999.90;;;14.20;99.90;;;;;;5097247;28;20039;-76
2022/11/28 11:11:06;;;;;;;1629.60;779.20;;;14.00;99.90;;;;;;5114562;28;20052;-77
2022/11/28 11:13:34;;;;;;;1999.90;999.90;;;14.20;99.90;;;;;;5114824;28;20043;-77
2022/11/28 11:16:06;;;;;;;1999.90;999.90;;;13.80;99.90;;;;;;5115607;28;20058;-80
2022/11/28 11:18:49;;;;;;;1999.90;999.90;;;13.50;99.90;;;;;;5113833;28;20389;-76
2022/11/28 11:21:16;;;;;;;1999.90;999.90;;;14.10;99.90;;;;;;5115070;28;20114;-76
2022/11/28 11:23:43;;;;;;;1999.90;999.90;;;13.40;99.90;;;;;;5113651;28;20126;-76
2022/11/28 11:26:26;;;;;;;1999.90;999.90;;;14.30;99.90;;;;;;5115460;28;20048;-75
2022/11/28 11:28:52;;;;;;;1999.90;999.90;;;15.00;99.90;;;;;;5114612;28;20043;-78
2022/11/28 11:31:22;;;;;;;1999.90;999.90;;;13.70;99.90;;;;;;5114594;28;20432;-76
2022/11/28 11:34:06;;;;;;;1999.90;999.90;;;13.50;99.90;;;;;;5113874;28;20567;-76
2022/11/28 11:36:35;;;;;;;1999.90;999.90;;;13.50;99.90;;;;;;5114673;28;20087;-76
2022/11/28 11:39:09;;;;;;;1999.90;999.90;;;13.60;99.90;;;;;;5114259;28;20418;-76
2022/11/28 11:41:37;;;;;;;1999.90;999.90;;;13.90;99.90;;;;;;5113682;28;20131;-75
2022/11/28 11:44:19;;;;;;;1999.90;999.90;;;14.20;99.90;;;;;;5114384;28;20052;-76
2022/11/28 11:46:51;;;;;;;1999.90;999.90;;;13.90;99.90;;;;;;5094503;28;20057;-75
2022/11/28 11:49:35;;;;;;;1999.90;999.90;;;13.60;99.90;;;;;;5113067;28;20043;-77
2022/11/28 11:52:24;;;;;;;1999.90;999.90;;;14.00;99.90;;;;;;5113783;28;20062;-76
2022/11/28 11:54:59;;;;;;;1999.90;999.90;;;14.60;99.90;;;;;;5094308;28;20039;-76
2022/11/28 11:57:43;;;;;;;1999.90;999.90;;;14.60;99.90;;;;;;5095147;28;20050;-77
2022/11/28 12:00:09;;;;;;;1999.90;999.90;;;14.10;99.90;;;;;;5114087;28;20044;-76
2022/11/28 12:02:37;;;;;;;1999.90;999.90;;;14.30;99.90;;;;;;5112332;28;20051;-75
2022/11/28 12:05:22;;;;;;;1999.90;999.90;;;14.70;99.90;;;;;;5113768;28;20192;-75
2022/11/28 12:07:57;;;;;;;1999.90;999.90;;;13.90;99.90;;;;;;5112343;28;20074;-76
2022/11/28 12:10:26;;;;;;;1999.90;999.90;;;13.90;99.90;;;;;;5114191;28;20396;-76
2022/11/28 12:12:52;;;;;;;1999.90;999.90;;;14.60;99.90;;;;;;5095662;28;20052;-76
2022/11/28 12:15:40;;;;;;;1999.90;999.90;;;13.70;99.90;;;;;;5095776;28;20107;-76
2022/11/28 12:18:11;;;;;;;1999.90;999.90;;;14.70;99.90;;;;;;5113001;28;20082;-76
2022/11/28 12:20:52;;;;;;;1999.90;999.90;;;14.70;99.90;;;;;;5094089;28;20422;-76
2022/11/28 12:23:54;;;;;;;1999.90;999.90;;;13.80;99.90;;;;;;5112514;28;20483;-76